Time;durP1;ratioP1;P1;durP2;ratioP2;P2;SDS_P1;SDS_P2;PMS_P1;PMS_P2;Temp;Humidity;BMP_temperature;BMP_pressure;BME280_temperature;BME280_humidity;BME280_pressure;Samples;Min_cycle;Max_cycle;Signal;HPM_P1;HPM_P2
2023/10/28 05:00:38;;;;;;;3.77;1.13;;;11.50;97.20;;;;;;1715100;28;20200;-77
2023/10/28 05:01:29;;;;;;;2.28;1.10;;;11.50;97.20;;;;;;1721240;28;20266;-78
2023/10/28 05:02:20;;;;;;;8.73;1.85;;;11.50;97.20;;;;;;1721171;28;20768;-78
2023/10/28 05:03:12;;;;;;;3.08;1.40;;;11.50;97.20;;;;;;1715194;28;20224;-78
2023/10/28 05:04:04;;;;;;;5.82;1.10;;;11.50;97.20;;;;;;1714726;28;20953;-78
2023/10/28 05:04:54;;;;;;;3.72;1.38;;;11.50;97.20;;;;;;1718639;28;20580;-77
2023/10/28 05:05:47;;;;;;;3.80;1.13;;;11.50;97.20;;;;;;1721187;28;20283;-78
2023/10/28 05:06:37;;;;;;;3.33;1.50;;;11.50;97.20;;;;;;1719133;28;20919;-78
2023/10/28 05:07:28;;;;;;;2.57;1.10;;;11.50;97.20;;;;;;1714347;28;20674;-78
2023/10/28 05:08:20;;;;;;;2.93;1.20;;;11.50;97.20;;;;;;1714370;28;20198;-78
2023/10/28 05:09:11;;;;;;;5.00;1.40;;;11.50;97.20;;;;;;1720699;28;20209;-78
2023/10/28 05:10:04;;;;;;;2.47;1.40;;;11.50;97.20;;;;;;1721377;28;20237;-78
2023/10/28 05:10:55;;;;;;;2.67;1.00;;;11.50;97.20;;;;;;1716778;28;20214;-78
2023/10/28 05:11:46;;;;;;;4.40;1.40;;;11.50;97.20;;;;;;1716563;28;20202;-78
2023/10/28 05:12:39;;;;;;;2.15;0.95;;;11.50;97.20;;;;;;1725427;28;20447;-78
2023/10/28 05:13:30;;;;;;;4.50;1.33;;;11.50;97.20;;;;;;1721305;28;20201;-78
2023/10/28 05:14:21;;;;;;;3.25;1.20;;;11.40;97.20;;;;;;1720488;28;20566;-78
2023/10/28 05:15:13;;;;;;;2.90;1.60;;;11.40;97.20;;;;;;1714630;28;20224;-78
2023/10/28 05:16:06;;;;;;;1.90;1.27;;;11.40;97.20;;;;;;1714580;28;20589;-78
2023/10/28 05:16:56;;;;;;;2.13;0.95;;;11.40;97.20;;;;;;1720501;28;20213;-78
2023/10/28 05:17:48;;;;;;;4.10;1.73;;;11.40;97.20;;;;;;1721369;28;20255;-78
2023/10/28 05:18:39;;;;;;;2.70;1.23;;;11.40;97.20;;;;;;1717781;28;20554;-78
2023/10/28 05:19:30;;;;;;;2.67;1.17;;;11.40;97.20;;;;;;1714231;28;20573;-78
2023/10/28 05:20:22;;;;;;;3.72;2.00;;;11.40;97.20;;;;;;1716127;28;20206;-78
2023/10/28 05:21:14;;;;;;;3.37;1.37;;;11.40;97.20;;;;;;1721242;28;20201;-79
2023/10/28 05:22:04;;;;;;;3.72;1.00;;;11.40;97.20;;;;;;1721283;28;20247;-78
2023/10/28 05:22:55;;;;;;;3.50;1.40;;;11.40;97.20;;;;;;1715088;28;20206;-78
2023/10/28 05:23:47;;;;;;;2.83;1.00;;;11.40;97.20;;;;;;1714725;28;20198;-77
2023/10/28 05:24:37;;;;;;;3.03;1.48;;;11.40;97.20;;;;;;1718697;28;20212;-78
2023/10/28 05:25:29;;;;;;;3.67;1.00;;;11.40;97.20;;;;;;1721511;28;20205;-78
2023/10/28 05:26:20;;;;;;;4.55;1.00;;;11.40;97.20;;;;;;1719079;28;20201;-78
2023/10/28 05:27:11;;;;;;;3.10;1.10;;;11.40;97.20;;;;;;1714714;28;20197;-78
2023/10/28 05:28:02;;;;;;;3.23;1.00;;;11.40;97.20;;;;;;1722311;28;20197;-78
2023/10/28 05:28:54;;;;;;;2.80;1.00;;;11.40;97.20;;;;;;1714368;28;20642;-78
2023/10/28 05:29:44;;;;;;;4.85;1.20;;;11.40;97.20;;;;;;1716365;28;20225;-79
2023/10/28 05:30:36;;;;;;;4.77;1.67;;;11.40;97.20;;;;;;1721076;28;20645;-78
2023/10/28 05:31:28;;;;;;;4.45;1.00;;;11.40;97.20;;;;;;1721064;28;20205;-78
2023/10/28 05:32:19;;;;;;;4.63;1.02;;;11.40;97.20;;;;;;1718713;28;20217;-78
2023/10/28 05:33:11;;;;;;;3.47;1.30;;;11.40;97.20;;;;;;1714663;28;20226;-78
2023/10/28 05:34:02;;;;;;;6.60;1.10;;;11.40;97.20;;;;;;1715158;28;20264;-78
2023/10/28 05:34:53;;;;;;;2.90;1.10;;;11.40;97.20;;;;;;1721507;28;20204;-78
2023/10/28 05:35:45;;;;;;;2.63;1.00;;;11.40;97.20;;;;;;1721232;28;20207;-78
2023/10/28 05:36:35;;;;;;;1.70;1.20;;;11.40;97.20;;;;;;1715875;28;20210;-78
2023/10/28 05:37:27;;;;;;;2.73;1.10;;;11.40;97.20;;;;;;1714528;28;20210;-78
2023/10/28 05:38:21;;;;;;;4.10;1.10;;;11.40;97.20;;;;;;1717686;28;20312;-78
2023/10/28 05:39:11;;;;;;;2.08;1.15;;;11.40;97.20;;;;;;1725615;28;20203;-78
2023/10/28 05:40:04;;;;;;;3.27;1.10;;;11.30;97.20;;;;;;1726440;28;20251;-78
2023/10/28 05:40:55;;;;;;;1.98;1.23;;;11.30;97.20;;;;;;1721516;28;20224;-78
2023/10/28 05:41:47;;;;;;;4.47;1.48;;;11.30;97.20;;;;;;1722321;28;20209;-78
2023/10/28 05:42:38;;;;;;;3.30;1.00;;;11.30;97.20;;;;;;1716136;28;20584;-78
2023/10/28 05:43:31;;;;;;;2.30;1.07;;;11.30;97.20;;;;;;1716012;28;20220;-78
2023/10/28 05:44:21;;;;;;;5.30;1.33;;;11.30;97.20;;;;;;1720645;28;20270;-78
2023/10/28 05:45:14;;;;;;;3.43;1.30;;;11.30;97.20;;;;;;1722826;28;20251;-77
2023/10/28 05:46:04;;;;;;;3.38;1.27;;;11.30;97.20;;;;;;1720122;28;20262;-78
2023/10/28 05:46:59;;;;;;;3.17;1.27;;;11.30;97.20;;;;;;1716006;28;20268;-78
2023/10/28 05:47:52;;;;;;;4.10;1.10;;;11.30;97.20;;;;;;1716854;28;20209;-78
2023/10/28 05:48:42;;;;;;;2.35;1.00;;;11.30;97.20;;;;;;1722685;28;20212;-78
2023/10/28 05:49:33;;;;;;;2.90;1.20;;;11.30;97.20;;;;;;1722237;28;20203;-78
2023/10/28 05:50:27;;;;;;;5.67;1.57;;;11.30;97.20;;;;;;1717032;28;20209;-78
2023/10/28 05:51:18;;;;;;;4.13;1.40;;;11.30;97.20;;;;;;1715715;28;20445;-78
2023/10/28 05:52:12;;;;;;;3.00;1.27;;;11.30;97.20;;;;;;1719818;28;20204;-78
2023/10/28 05:53:03;;;;;;;2.78;1.20;;;11.30;97.20;;;;;;1727564;28;20829;-78
2023/10/28 05:53:54;;;;;;;2.92;1.20;;;11.30;97.20;;;;;;1727137;28;20598;-77
2023/10/28 05:54:46;;;;;;;4.20;1.60;;;11.30;97.20;;;;;;1722793;28;20654;-78
2023/10/28 05:55:36;;;;;;;5.15;1.25;;;11.30;97.20;;;;;;1722435;28;20209;-76
2023/10/28 05:56:27;;;;;;;4.63;1.47;;;11.30;97.20;;;;;;1715883;28;20206;-78
2023/10/28 05:57:19;;;;;;;3.35;1.55;;;11.30;97.20;;;;;;1715828;28;20198;-77
2023/10/28 05:58:10;;;;;;;4.07;1.50;;;11.30;97.20;;;;;;1720826;28;20213;-78
2023/10/28 05:59:02;;;;;;;5.70;1.30;;;11.40;97.20;;;;;;1722279;28;20209;-78
2023/10/28 05:59:52;;;;;;;2.97;1.60;;;11.40;97.20;;;;;;1719554;28;20233;-78
2023/10/28 06:00:44;;;;;;;3.80;1.20;;;11.40;97.20;;;;;;1715782;28;20208;-78
2023/10/28 06:01:36;;;;;;;4.43;1.48;;;11.40;97.20;;;;;;1715906;28;20292;-77
2023/10/28 06:02:28;;;;;;;4.45;1.90;;;11.40;97.20;;;;;;1722121;28;20198;-78
2023/10/28 06:03:19;;;;;;;2.13;1.50;;;11.40;97.20;;;;;;1724545;28;20205;-81
2023/10/28 06:04:10;;;;;;;3.43;1.20;;;11.40;97.20;;;;;;1718495;28;20201;-80
2023/10/28 06:05:03;;;;;;;3.67;1.00;;;11.40;97.20;;;;;;1719037;28;20209;-81
2023/10/28 06:05:55;;;;;;;3.60;1.77;;;11.40;97.20;;;;;;1721502;28;20209;-82
2023/10/28 06:06:47;;;;;;;4.43;1.45;;;11.40;97.20;;;;;;1724159;28;20223;-81
2023/10/28 06:07:39;;;;;;;6.85;1.30;;;11.40;97.20;;;;;;1724152;28;20201;-80
2023/10/28 06:08:31;;;;;;;3.47;1.48;;;11.40;97.20;;;;;;1719484;28;20272;-80
2023/10/28 06:09:23;;;;;;;3.47;1.63;;;11.40;97.20;;;;;;1731184;28;20204;-81
2023/10/28 06:10:15;;;;;;;3.67;1.88;;;11.40;97.20;;;;;;1718777;28;20214;-80
2023/10/28 06:11:05;;;;;;;6.35;1.67;;;11.40;97.20;;;;;;1718130;28;20581;-80
2023/10/28 06:11:57;;;;;;;3.30;1.53;;;11.40;97.20;;;;;;1722794;28;20681;-81
2023/10/28 06:12:48;;;;;;;2.67;1.65;;;11.40;97.20;;;;;;1725868;28;20684;-82
2023/10/28 06:13:39;;;;;;;3.40;2.10;;;11.40;97.20;;;;;;1728056;28;20203;-81
2023/10/28 06:14:30;;;;;;;2.63;1.70;;;11.40;97.20;;;;;;1726668;28;20958;-80
2023/10/28 06:15:24;;;;;;;3.47;1.87;;;11.40;97.20;;;;;;1725690;28;20225;-81
2023/10/28 06:16:15;;;;;;;4.40;1.52;;;11.40;97.20;;;;;;1718193;28;20456;-81
2023/10/28 06:17:06;;;;;;;4.00;1.90;;;11.40;97.20;;;;;;1719714;28;20202;-81
2023/10/28 06:17:59;;;;;;;3.40;1.43;;;11.40;97.20;;;;;;1726208;28;20483;-82
2023/10/28 06:18:50;;;;;;;4.95;1.60;;;11.40;97.20;;;;;;1726794;28;20205;-81
2023/10/28 06:19:42;;;;;;;4.15;1.35;;;11.50;97.20;;;;;;1720745;28;20213;-80
2023/10/28 06:20:33;;;;;;;4.63;1.33;;;11.50;97.20;;;;;;1717896;28;20225;-80
2023/10/28 06:21:24;;;;;;;3.83;1.20;;;11.50;97.20;;;;;;1719192;28;20265;-80
2023/10/28 06:22:15;;;;;;;3.27;1.30;;;11.50;97.20;;;;;;1725354;28;20228;-80
2023/10/28 06:23:06;;;;;;;3.83;1.17;;;11.50;97.20;;;;;;1725750;28;20609;-80
2023/10/28 06:23:58;;;;;;;3.27;1.53;;;11.50;97.20;;;;;;1718831;28;20209;-80
2023/10/28 06:24:49;;;;;;;5.97;2.03;;;11.50;97.20;;;;;;1718660;28;20210;-80
2023/10/28 06:25:41;;;;;;;2.23;1.13;;;11.50;97.20;;;;;;1722662;28;20205;-80
2023/10/28 06:26:32;;;;;;;3.97;1.73;;;11.60;97.20;;;;;;1722469;28;20205;-78
2023/10/28 06:27:23;;;;;;;3.93;1.40;;;11.60;97.20;;;;;;1723873;28;20201;-78
2023/10/28 06:28:15;;;;;;;2.20;1.17;;;11.60;97.20;;;;;;1721802;28;20255;-77
2023/10/28 06:29:08;;;;;;;3.83;1.35;;;11.60;97.20;;;;;;1721320;28;20666;-77
2023/10/28 06:29:59;;;;;;;5.60;1.27;;;11.60;97.20;;;;;;1721556;28;20304;-77
2023/10/28 06:30:52;;;;;;;6.00;1.35;;;11.60;97.20;;;;;;1721650;28;20349;-78
2023/10/28 06:31:44;;;;;;;2.83;1.15;;;11.70;97.20;;;;;;1716351;28;20210;-78
2023/10/28 06:32:35;;;;;;;2.28;0.93;;;11.70;97.20;;;;;;1715039;28;20237;-77
2023/10/28 06:33:28;;;;;;;4.07;1.20;;;11.70;97.20;;;;;;1717297;28;20201;-77
2023/10/28 06:34:20;;;;;;;3.67;1.20;;;11.70;97.20;;;;;;1721042;28;20205;-77
2023/10/28 06:35:13;;;;;;;2.42;1.35;;;11.80;97.20;;;;;;1721096;28;20209;-77
2023/10/28 06:36:05;;;;;;;3.22;1.38;;;11.80;97.20;;;;;;1721137;28;20209;-78
2023/10/28 06:36:56;;;;;;;3.70;1.13;;;11.80;97.20;;;;;;1721034;28;20264;-78
2023/10/28 06:37:47;;;;;;;3.92;1.40;;;11.80;97.20;;;;;;1714354;28;20213;-77
2023/10/28 06:38:38;;;;;;;3.13;1.40;;;11.80;97.20;;;;;;1714657;28;20284;-77
2023/10/28 06:39:33;;;;;;;3.43;1.37;;;11.80;97.20;;;;;;1718521;28;20208;-77
2023/10/28 06:40:24;;;;;;;3.45;1.60;;;11.80;97.20;;;;;;1721050;28;20216;-78
2023/10/28 06:41:16;;;;;;;2.65;1.40;;;11.80;97.20;;;;;;1718761;28;20205;-77
2023/10/28 06:42:07;;;;;;;3.10;1.15;;;11.80;97.20;;;;;;1718779;28;20198;-78
2023/10/28 06:42:58;;;;;;;2.63;1.40;;;11.80;97.20;;;;;;1714982;28;20698;-77
2023/10/28 06:43:49;;;;;;;5.32;1.60;;;11.80;97.20;;;;;;1721289;28;20205;-77
2023/10/28 06:44:40;;;;;;;4.50;1.43;;;11.90;97.20;;;;;;1715676;28;20197;-77
2023/10/28 06:45:32;;;;;;;2.67;1.40;;;11.90;97.20;;;;;;1719285;28;20224;-76
2023/10/28 06:46:25;;;;;;;3.70;1.40;;;11.90;97.20;;;;;;1715725;28;20205;-76
2023/10/28 06:47:17;;;;;;;7.53;1.55;;;11.90;97.20;;;;;;1720158;28;20248;-77
2023/10/28 06:48:10;;;;;;;3.40;1.30;;;11.90;97.20;;;;;;1722145;28;20208;-78
2023/10/28 06:49:02;;;;;;;4.45;1.40;;;11.80;97.20;;;;;;1721138;28;20614;-78
2023/10/28 06:49:53;;;;;;;4.25;1.30;;;11.80;97.20;;;;;;1720907;28;20316;-77
2023/10/28 06:50:45;;;;;;;2.85;1.48;;;11.80;97.20;;;;;;1721262;28;20204;-77
2023/10/28 06:51:35;;;;;;;4.28;1.50;;;11.80;97.20;;;;;;1716551;28;20674;-77
2023/10/28 06:52:28;;;;;;;1.70;1.30;;;11.80;97.20;;;;;;1720212;28;20581;-77
2023/10/28 06:53:20;;;;;;;4.38;1.65;;;11.80;97.20;;;;;;1717130;28;20284;-78
2023/10/28 06:54:12;;;;;;;2.38;1.35;;;11.80;97.20;;;;;;1714495;28;20232;-77
2023/10/28 06:55:05;;;;;;;5.20;1.85;;;11.80;97.20;;;;;;1717567;28;20216;-77
2023/10/28 06:55:56;;;;;;;3.30;1.98;;;11.80;97.20;;;;;;1721274;28;20201;-77
2023/10/28 06:56:47;;;;;;;4.13;1.33;;;11.80;97.20;;;;;;1720105;28;20216;-76
2023/10/28 06:57:38;;;;;;;4.33;1.50;;;11.80;97.20;;;;;;1725441;28;20202;-77
2023/10/28 06:58:30;;;;;;;2.80;0.90;;;11.80;97.20;;;;;;1727762;28;20219;-76
2023/10/28 06:59:23;;;;;;;2.90;1.30;;;11.80;97.20;;;;;;1721329;28;20452;-76
2023/10/28 07:00:16;;;;;;;2.75;1.15;;;11.80;97.20;;;;;;1721172;28;20249;-78
2023/10/28 07:01:09;;;;;;;3.63;1.30;;;11.80;97.20;;;;;;1717191;28;20693;-77
2023/10/28 07:02:01;;;;;;;3.42;1.15;;;11.80;97.20;;;;;;1717418;28;20228;-78
2023/10/28 07:02:52;;;;;;;1.75;1.20;;;11.80;97.20;;;;;;1717611;28;20217;-78
2023/10/28 07:03:42;;;;;;;2.87;1.10;;;11.80;97.20;;;;;;1720988;28;20216;-77
2023/10/28 07:04:35;;;;;;;5.90;1.40;;;11.80;97.20;;;;;;1721812;28;20788;-77
2023/10/28 07:05:26;;;;;;;3.05;1.08;;;11.90;97.20;;;;;;1721920;28;20197;-77
2023/10/28 07:06:17;;;;;;;2.90;1.00;;;11.90;97.20;;;;;;1722014;28;20224;-79
2023/10/28 07:07:12;;;;;;;3.83;1.58;;;11.90;97.20;;;;;;1716952;28;20210;-78
2023/10/28 07:08:03;;;;;;;6.55;1.83;;;12.00;97.20;;;;;;1715058;28;20213;-78
2023/10/28 07:08:55;;;;;;;2.67;1.40;;;12.00;97.20;;;;;;1719097;28;20230;-78
2023/10/28 07:09:46;;;;;;;3.38;1.83;;;12.00;97.20;;;;;;1721830;28;20472;-79
2023/10/28 07:10:39;;;;;;;2.08;1.15;;;12.10;97.20;;;;;;1720590;28;20914;-77
2023/10/28 07:11:29;;;;;;;3.17;1.20;;;12.10;97.20;;;;;;1722010;28;20204;-77
2023/10/28 07:12:20;;;;;;;1.60;1.10;;;12.20;97.20;;;;;;1721962;28;20276;-78
2023/10/28 07:13:12;;;;;;;3.37;1.50;;;12.20;97.20;;;;;;1725123;28;20193;-78
2023/10/28 07:14:03;;;;;;;3.80;1.40;;;12.30;97.20;;;;;;1721935;28;20205;-79
2023/10/28 07:14:54;;;;;;;4.23;1.50;;;12.30;97.20;;;;;;1721840;28;20657;-77
2023/10/28 07:15:45;;;;;;;2.95;1.10;;;12.30;97.20;;;;;;1721989;28;20285;-78
2023/10/28 07:16:36;;;;;;;5.78;1.23;;;12.30;97.20;;;;;;1719888;28;20212;-78
2023/10/28 07:17:27;;;;;;;4.30;1.47;;;12.30;97.20;;;;;;1721665;28;20196;-78
2023/10/28 07:18:19;;;;;;;2.20;1.40;;;12.40;97.20;;;;;;1722249;28;20682;-78
2023/10/28 07:19:09;;;;;;;5.15;1.50;;;12.40;97.20;;;;;;1721218;28;20209;-77
2023/10/28 07:20:03;;;;;;;3.53;1.23;;;12.40;97.20;;;;;;1722058;28;20228;-78
2023/10/28 07:20:54;;;;;;;2.00;1.02;;;12.40;97.20;;;;;;1722307;28;20480;-78
2023/10/28 07:21:45;;;;;;;2.40;1.23;;;12.40;97.20;;;;;;1722309;28;20220;-78
2023/10/28 07:22:37;;;;;;;2.57;1.50;;;12.40;97.20;;;;;;1719301;28;20216;-78
2023/10/28 07:23:28;;;;;;;3.33;1.30;;;12.40;97.20;;;;;;1715312;28;20236;-78
2023/10/28 07:24:20;;;;;;;5.47;1.20;;;12.50;97.20;;;;;;1716194;28;20293;-78
2023/10/28 07:25:11;;;;;;;1.58;1.20;;;12.50;97.20;;;;;;1722040;28;20581;-78
2023/10/28 07:26:03;;;;;;;1.90;1.27;;;12.50;97.20;;;;;;1722242;28;20201;-78
2023/10/28 07:26:54;;;;;;;3.72;1.40;;;12.50;97.20;;;;;;1716529;28;20201;-78
2023/10/28 07:27:44;;;;;;;2.30;1.50;;;12.40;97.20;;;;;;1715643;28;20209;-79
2023/10/28 07:28:37;;;;;;;3.23;1.40;;;12.40;97.20;;;;;;1718885;28;20761;-78
2023/10/28 07:29:28;;;;;;;3.88;1.35;;;12.40;97.20;;;;;;1721448;28;20673;-78
2023/10/28 07:30:19;;;;;;;3.20;1.20;;;12.40;97.20;;;;;;1721786;28;20197;-78
2023/10/28 07:31:10;;;;;;;4.80;1.60;;;12.40;97.20;;;;;;1722010;28;20444;-77
2023/10/28 07:32:02;;;;;;;8.15;2.42;;;12.40;97.20;;;;;;1721793;28;20201;-78
2023/10/28 07:32:53;;;;;;;6.60;2.00;;;12.50;97.20;;;;;;1715465;28;20297;-78
2023/10/28 07:33:44;;;;;;;2.90;1.43;;;12.50;97.20;;;;;;1715010;28;20209;-77
2023/10/28 07:34:35;;;;;;;4.93;1.65;;;12.50;97.20;;;;;;1718908;28;20749;-78
2023/10/28 07:35:28;;;;;;;4.37;1.33;;;12.50;97.20;;;;;;1721577;28;20537;-78
2023/10/28 07:36:19;;;;;;;6.55;1.80;;;12.60;97.20;;;;;;1719239;28;20212;-77
2023/10/28 07:37:11;;;;;;;6.60;1.73;;;12.60;97.20;;;;;;1715033;28;20208;-78
2023/10/28 07:38:01;;;;;;;5.00;1.60;;;12.60;97.20;;;;;;1715427;28;20221;-78
2023/10/28 07:38:53;;;;;;;4.30;1.70;;;12.60;97.20;;;;;;1721894;28;20657;-78
2023/10/28 07:39:44;;;;;;;3.75;1.40;;;12.60;97.20;;;;;;1721033;28;20209;-78
2023/10/28 07:40:35;;;;;;;4.78;1.30;;;12.60;97.20;;;;;;1716848;28;20288;-78
2023/10/28 07:41:27;;;;;;;4.47;1.70;;;12.70;97.20;;;;;;1715379;28;20202;-78
2023/10/28 07:42:18;;;;;;;4.80;1.55;;;12.70;97.20;;;;;;1720763;28;20202;-78
2023/10/28 07:43:13;;;;;;;9.05;2.28;;;12.70;97.20;;;;;;1727447;28;20311;-77
2023/10/28 07:44:04;;;;;;;3.70;1.55;;;12.70;97.20;;;;;;1718935;28;20226;-76
2023/10/28 07:44:55;;;;;;;3.88;2.50;;;12.70;97.20;;;;;;1721420;28;20200;-78
2023/10/28 07:45:46;;;;;;;4.03;1.93;;;12.70;97.20;;;;;;1721218;28;20207;-77
2023/10/28 07:46:38;;;;;;;3.90;1.40;;;12.70;97.20;;;;;;1721177;28;20220;-77
2023/10/28 07:47:29;;;;;;;2.70;1.50;;;12.70;97.20;;;;;;1721228;28;20200;-77
2023/10/28 07:48:20;;;;;;;6.80;1.70;;;12.70;97.20;;;;;;1720877;28;20661;-77
2023/10/28 07:49:11;;;;;;;5.60;1.60;;;12.70;97.20;;;;;;1720072;28;20444;-77
2023/10/28 07:50:02;;;;;;;5.97;1.70;;;12.70;97.20;;;;;;1720518;28;20221;-76
2023/10/28 07:50:55;;;;;;;3.93;1.57;;;12.70;97.20;;;;;;1721096;28;20443;-77
2023/10/28 07:51:46;;;;;;;5.88;2.15;;;12.70;97.20;;;;;;1721037;28;20449;-76
2023/10/28 07:52:37;;;;;;;7.13;2.20;;;12.70;97.20;;;;;;1714338;28;20305;-77
2023/10/28 07:53:30;;;;;;;11.60;2.40;;;12.70;97.20;;;;;;1714277;28;20269;-77
2023/10/28 07:54:20;;;;;;;4.00;2.00;;;12.70;97.20;;;;;;1713961;28;20202;-77
2023/10/28 07:55:11;;;;;;;4.93;2.20;;;12.70;97.20;;;;;;1714326;28;20282;-77
2023/10/28 07:56:03;;;;;;;8.30;2.07;;;12.80;97.20;;;;;;1716931;28;20193;-77
2023/10/28 07:56:54;;;;;;;5.10;1.80;;;12.80;97.20;;;;;;1721097;28;20452;-76
2023/10/28 07:57:46;;;;;;;4.83;2.10;;;12.80;97.20;;;;;;1720435;28;20197;-77
2023/10/28 07:58:36;;;;;;;6.55;2.90;;;12.80;97.20;;;;;;1724050;28;20574;-76
2023/10/28 07:59:27;;;;;;;7.83;2.63;;;12.90;97.20;;;;;;1727033;28;20562;-77
2023/10/28 08:00:20;;;;;;;5.07;2.30;;;12.90;97.20;;;;;;1722124;28;20267;-77
2023/10/28 08:01:14;;;;;;;4.55;3.58;;;13.00;97.20;;;;;;1720763;28;20209;-76
2023/10/28 08:02:06;;;;;;;6.25;2.78;;;13.00;97.20;;;;;;1717263;28;20700;-78
2023/10/28 08:02:57;;;;;;;9.23;7.90;;;13.00;97.20;;;;;;1724439;28;20207;-77
2023/10/28 08:03:49;;;;;;;4.60;3.60;;;13.00;97.20;;;;;;1725991;28;20296;-78
2023/10/28 08:04:39;;;;;;;6.80;2.00;;;13.10;97.20;;;;;;1720679;28;20284;-77
2023/10/28 08:05:30;;;;;;;4.53;1.90;;;13.10;97.20;;;;;;1720963;28;20217;-77
2023/10/28 08:06:23;;;;;;;8.40;2.50;;;13.20;97.20;;;;;;1714289;28;20249;-77
2023/10/28 08:07:15;;;;;;;9.00;2.58;;;13.20;97.20;;;;;;1714436;28;20456;-77
2023/10/28 08:08:06;;;;;;;3.97;2.15;;;13.20;97.20;;;;;;1719008;28;20213;-78
2023/10/28 08:08:57;;;;;;;5.30;2.60;;;13.30;97.20;;;;;;1721199;28;20209;-77
2023/10/28 08:09:48;;;;;;;3.50;2.37;;;13.30;97.20;;;;;;1718298;28;20271;-77
2023/10/28 08:10:40;;;;;;;6.90;3.17;;;13.30;97.20;;;;;;1714436;28;20683;-77
2023/10/28 08:11:31;;;;;;;7.70;2.20;;;13.30;97.20;;;;;;1714724;28;20218;-77
2023/10/28 08:12:22;;;;;;;5.23;1.90;;;13.40;97.20;;;;;;1720935;28;20252;-78
2023/10/28 08:13:14;;;;;;;3.63;1.30;;;13.40;97.20;;;;;;1721096;28;20575;-77
2023/10/28 08:14:05;;;;;;;5.35;1.90;;;13.40;97.20;;;;;;1717572;28;20507;-77
2023/10/28 08:14:56;;;;;;;6.50;2.50;;;13.50;97.20;;;;;;1715040;28;20201;-78
2023/10/28 08:15:52;;;;;;;2.38;1.77;;;13.50;97.20;;;;;;1719052;28;20199;-77
2023/10/28 08:16:43;;;;;;;4.45;1.60;;;13.50;97.20;;;;;;1725159;28;20205;-77
2023/10/28 08:17:34;;;;;;;10.97;2.07;;;13.50;97.20;;;;;;1721942;28;20197;-77
2023/10/28 08:18:25;;;;;;;4.57;1.90;;;13.50;97.20;;;;;;1720696;28;20236;-77
2023/10/28 08:19:17;;;;;;;4.47;1.60;;;13.50;97.20;;;;;;1718722;28;20574;-76
2023/10/28 08:20:09;;;;;;;6.88;2.25;;;13.60;97.20;;;;;;1720532;28;20220;-76
2023/10/28 08:21:00;;;;;;;4.97;2.00;;;13.60;97.20;;;;;;1716218;28;20205;-78
2023/10/28 08:21:53;;;;;;;5.97;2.20;;;13.60;97.20;;;;;;1718790;28;20205;-77
2023/10/28 08:22:44;;;;;;;6.07;1.60;;;13.60;97.20;;;;;;1721059;28;20459;-77
2023/10/28 08:23:35;;;;;;;5.13;2.22;;;13.60;97.20;;;;;;1718303;28;20632;-77
2023/10/28 08:24:27;;;;;;;4.80;1.63;;;13.60;97.20;;;;;;1714211;28;20205;-76
2023/10/28 08:25:18;;;;;;;4.72;1.80;;;13.70;97.20;;;;;;1717589;28;20654;-78
2023/10/28 08:26:10;;;;;;;5.20;2.10;;;13.70;97.20;;;;;;1720606;28;20549;-77
2023/10/28 08:27:02;;;;;;;2.40;1.40;;;13.70;97.20;;;;;;1716074;28;20521;-77
2023/10/28 08:27:54;;;;;;;10.75;3.40;;;13.80;97.20;;;;;;1719679;28;20241;-76
2023/10/28 08:28:46;;;;;;;4.78;1.90;;;13.80;97.20;;;;;;1720831;28;20662;-77
2023/10/28 08:29:39;;;;;;;6.75;2.20;;;13.80;97.20;;;;;;1716531;28;20301;-77
2023/10/28 08:30:29;;;;;;;8.05;2.20;;;13.90;97.20;;;;;;1714005;28;20209;-77
2023/10/28 08:31:20;;;;;;;7.90;2.27;;;13.90;97.20;;;;;;1715486;28;20208;-77
2023/10/28 08:32:13;;;;;;;6.13;2.83;;;14.00;97.20;;;;;;1721531;28;20212;-77
2023/10/28 08:33:03;;;;;;;4.03;2.30;;;14.00;97.20;;;;;;1721125;28;20460;-77
2023/10/28 08:33:54;;;;;;;5.37;2.03;;;14.10;97.20;;;;;;1720783;28;20292;-77
2023/10/28 08:34:46;;;;;;;3.50;1.87;;;14.10;97.20;;;;;;1720856;28;20629;-76
2023/10/28 08:35:37;;;;;;;3.60;2.17;;;14.20;97.20;;;;;;1719900;28;20216;-76
2023/10/28 08:36:29;;;;;;;4.63;2.83;;;14.20;97.20;;;;;;1719497;28;20252;-77
2023/10/28 08:37:21;;;;;;;5.90;4.13;;;14.20;97.20;;;;;;1716474;28;20570;-77
2023/10/28 08:38:12;;;;;;;7.60;3.67;;;14.20;97.20;;;;;;1721118;28;20292;-78
2023/10/28 08:39:05;;;;;;;3.87;2.80;;;14.20;97.20;;;;;;1720801;28;20658;-77
2023/10/28 08:39:56;;;;;;;5.38;2.25;;;14.20;97.20;;;;;;1714072;28;20726;-78
2023/10/28 08:40:47;;;;;;;3.60;1.97;;;14.20;97.20;;;;;;1714239;28;20568;-77
2023/10/28 08:41:40;;;;;;;7.28;2.17;;;14.20;97.20;;;;;;1719023;28;20343;-78
2023/10/28 08:42:31;;;;;;;3.58;2.13;;;14.20;97.20;;;;;;1720770;28;20209;-77
2023/10/28 08:43:24;;;;;;;4.00;2.80;;;14.30;97.20;;;;;;1717817;28;20202;-78
2023/10/28 08:44:17;;;;;;;3.75;2.08;;;14.30;97.20;;;;;;1714315;28;20930;-78
2023/10/28 08:45:09;;;;;;;5.10;2.40;;;14.30;97.20;;;;;;1716095;28;20205;-77
2023/10/28 08:46:04;;;;;;;5.15;2.65;;;14.40;97.20;;;;;;1714792;28;20208;-76
2023/10/28 08:46:55;;;;;;;5.82;2.22;;;14.40;97.20;;;;;;1716525;28;20895;-78
2023/10/28 08:47:48;;;;;;;6.53;2.40;;;14.40;97.20;;;;;;1720541;28;20712;-77
2023/10/28 08:48:41;;;;;;;6.78;2.20;;;14.40;97.20;;;;;;1720641;28;20459;-77
2023/10/28 08:49:35;;;;;;;7.10;2.80;;;14.50;97.20;;;;;;1721525;28;20201;-78
2023/10/28 08:50:27;;;;;;;3.25;2.30;;;14.50;97.20;;;;;;1720829;28;20201;-77
2023/10/28 08:51:18;;;;;;;3.22;2.45;;;14.50;97.20;;;;;;1717040;28;20213;-77
2023/10/28 08:52:11;;;;;;;5.80;2.50;;;14.50;97.20;;;;;;1714387;28;20193;-77
2023/10/28 08:53:04;;;;;;;4.72;2.08;;;14.50;97.20;;;;;;1715582;28;20449;-76
2023/10/28 08:53:58;;;;;;;5.10;2.28;;;14.60;97.20;;;;;;1720454;28;20201;-77
2023/10/28 08:54:49;;;;;;;5.20;2.05;;;14.60;97.20;;;;;;1720502;28;20688;-77
2023/10/28 08:55:41;;;;;;;5.45;1.83;;;14.60;97.20;;;;;;1716350;28;20658;-77
2023/10/28 08:56:35;;;;;;;4.35;2.22;;;14.60;97.20;;;;;;1716779;28;20205;-77
2023/10/28 08:57:28;;;;;;;3.75;1.83;;;14.60;97.20;;;;;;1719438;28;20280;-77
2023/10/28 08:58:21;;;;;;;6.60;2.13;;;14.60;97.20;;;;;;1720773;28;20205;-78
2023/10/28 08:59:11;;;;;;;7.55;1.80;;;14.70;97.20;;;;;;1716315;28;20243;-77
2023/10/28 09:00:14;;;;;;;7.53;3.17;;;14.70;97.20;;;;;;1713917;28;20222;-76
2023/10/28 09:01:05;;;;;;;5.93;2.90;;;14.70;97.20;;;;;;1717321;28;20550;-77
2023/10/28 09:01:57;;;;;;;12.02;3.33;;;14.70;97.20;;;;;;1720801;28;20212;-77
2023/10/28 09:02:50;;;;;;;4.57;2.63;;;14.70;97.20;;;;;;1719559;28;20211;-77
2023/10/28 09:03:43;;;;;;;11.20;3.33;;;14.60;97.20;;;;;;1714166;28;20595;-78
2023/10/28 09:04:35;;;;;;;4.72;2.60;;;14.60;97.20;;;;;;1714205;28;20198;-77
2023/10/28 09:05:26;;;;;;;8.25;3.05;;;14.60;97.20;;;;;;1718534;28;20201;-78
2023/10/28 09:06:19;;;;;;;6.10;1.73;;;14.50;97.20;;;;;;1720072;28;20197;-77
2023/10/28 09:07:10;;;;;;;4.53;2.20;;;14.50;97.20;;;;;;1720394;28;20451;-77
2023/10/28 09:08:03;;;;;;;4.73;2.23;;;14.40;97.20;;;;;;1720662;28;20300;-77
2023/10/28 09:08:57;;;;;;;8.27;2.40;;;14.40;97.20;;;;;;1720725;28;20576;-77
2023/10/28 09:09:57;;;;;;;5.03;2.05;;;14.40;97.20;;;;;;1720229;28;20847;-77
2023/10/28 09:10:49;;;;;;;4.82;2.40;;;14.40;97.20;;;;;;1718196;28;20226;-77
2023/10/28 09:11:40;;;;;;;8.85;2.67;;;14.40;97.20;;;;;;1713583;28;20279;-77
2023/10/28 09:12:32;;;;;;;12.77;3.60;;;14.40;97.20;;;;;;1714148;28;20821;-77
2023/10/28 09:13:23;;;;;;;10.18;3.47;;;14.40;97.20;;;;;;1720900;28;20209;-78
2023/10/28 09:14:15;;;;;;;5.65;1.58;;;14.40;97.20;;;;;;1720734;28;20252;-77
2023/10/28 09:15:08;;;;;;;4.30;2.17;;;14.40;97.20;;;;;;1717371;28;20232;-77
2023/10/28 09:16:01;;;;;;;6.25;2.92;;;14.50;97.20;;;;;;1721256;28;20263;-78
2023/10/28 09:16:55;;;;;;;6.40;2.50;;;14.50;97.20;;;;;;1720862;28;20653;-77
2023/10/28 09:17:46;;;;;;;6.43;2.35;;;14.60;97.20;;;;;;1721901;28;20619;-77
2023/10/28 09:18:38;;;;;;;8.70;1.70;;;14.60;97.20;;;;;;1722155;28;20677;-77
2023/10/28 09:19:29;;;;;;;2.75;1.83;;;14.70;97.20;;;;;;1721719;28;20196;-77
2023/10/28 09:20:21;;;;;;;6.13;2.05;;;14.80;97.20;;;;;;1722186;28;20572;-77
2023/10/28 09:21:12;;;;;;;5.10;2.15;;;14.80;97.20;;;;;;1717509;28;20574;-77
2023/10/28 09:22:04;;;;;;;5.13;1.60;;;14.90;97.20;;;;;;1729001;28;20208;-77
2023/10/28 09:22:56;;;;;;;6.43;1.60;;;14.90;97.20;;;;;;1723770;28;20209;-77
2023/10/28 09:23:46;;;;;;;7.97;2.25;;;14.90;97.20;;;;;;1721868;28;20736;-77
2023/10/28 09:24:45;;;;;;;5.10;1.60;;;14.90;97.20;;;;;;1719627;28;20567;-76
2023/10/28 09:25:36;;;;;;;5.10;2.03;;;15.00;97.20;;;;;;1718007;28;20578;-77
2023/10/28 09:26:28;;;;;;;5.05;1.67;;;15.00;97.20;;;;;;1718436;28;20587;-77
2023/10/28 09:27:21;;;;;;;6.10;2.20;;;15.00;97.20;;;;;;1715300;28;20197;-77
2023/10/28 09:28:16;;;;;;;2.90;2.20;;;15.10;97.20;;;;;;1715382;28;20229;-76
2023/10/28 09:29:06;;;;;;;5.90;2.03;;;15.10;97.20;;;;;;1715016;28;20214;-77